sensor_id;sensor_type;location;lat;lon;timestamp;pressure;altitude;pressure_sealevel;temperature;humidity
46412;BME280;32113;42.012;24.870;2023-02-20T00:01:51;99141.41;;;16.57;34.75
46412;BME280;32113;42.012;24.870;2023-02-20T00:04:17;99143.03;;;16.59;35.06
46412;BME280;32113;42.012;24.870;2023-02-20T00:06:43;99148.09;;;16.62;34.84
46412;BME280;32113;42.012;24.870;2023-02-20T00:09:09;99158.28;;;16.68;34.81
46412;BME280;32113;42.012;24.870;2023-02-20T00:11:34;99160.81;;;16.70;34.45
46412;BME280;32113;42.012;24.870;2023-02-20T00:13:59;99159.59;;;16.80;34.75
46412;BME280;32113;42.012;24.870;2023-02-20T00:16:25;99159.63;;;16.79;34.70
46412;BME280;32113;42.012;24.870;2023-02-20T00:18:50;99163.22;;;16.75;34.59
46412;BME280;32113;42.012;24.870;2023-02-20T00:21:16;99163.50;;;16.67;34.75
46412;BME280;32113;42.012;24.870;2023-02-20T00:23:41;99171.84;;;16.75;34.58
46412;BME280;32113;42.012;24.870;2023-02-20T00:26:11;99164.22;;;16.71;34.47
46412;BME280;32113;42.012;24.870;2023-02-20T00:28:38;99165.91;;;16.72;34.47
46412;BME280;32113;42.012;24.870;2023-02-20T00:31:05;99169.09;;;16.80;34.22
46412;BME280;32113;42.012;24.870;2023-02-20T00:33:31;99172.31;;;16.61;34.83
46412;BME280;32113;42.012;24.870;2023-02-20T00:35:56;99169.84;;;16.58;35.07
46412;BME280;32113;42.012;24.870;2023-02-20T00:38:22;99174.75;;;16.66;34.82
46412;BME280;32113;42.012;24.870;2023-02-20T00:40:47;99181.66;;;16.65;35.02
46412;BME280;32113;42.012;24.870;2023-02-20T00:43:13;99179.81;;;16.69;34.87
46412;BME280;32113;42.012;24.870;2023-02-20T00:45:38;99187.16;;;16.56;34.47
46412;BME280;32113;42.012;24.870;2023-02-20T00:48:04;99178.66;;;16.52;34.82
46412;BME280;32113;42.012;24.870;2023-02-20T00:50:29;99173.59;;;16.48;34.97
46412;BME280;32113;42.012;24.870;2023-02-20T00:52:55;99177.97;;;16.47;34.99
46412;BME280;32113;42.012;24.870;2023-02-20T00:55:20;99181.59;;;16.41;34.91
46412;BME280;32113;42.012;24.870;2023-02-20T00:57:45;99176.25;;;16.46;34.91
46412;BME280;32113;42.012;24.870;2023-02-20T01:00:19;99179.03;;;16.40;35.09
46412;BME280;32113;42.012;24.870;2023-02-20T01:02:45;99159.44;;;16.33;35.39
46412;BME280;32113;42.012;24.870;2023-02-20T01:05:10;99169.16;;;16.26;35.46
46412;BME280;32113;42.012;24.870;2023-02-20T01:07:36;99170.25;;;16.17;35.42
46412;BME280;32113;42.012;24.870;2023-02-20T01:10:01;99163.16;;;16.24;35.50
46412;BME280;32113;42.012;24.870;2023-02-20T01:12:27;99166.81;;;16.18;35.21
46412;BME280;32113;42.012;24.870;2023-02-20T01:14:52;99174.75;;;16.12;35.38
46412;BME280;32113;42.012;24.870;2023-02-20T01:17:18;99160.16;;;16.09;35.58
46412;BME280;32113;42.012;24.870;2023-02-20T01:19:43;99176.28;;;16.18;35.54
46412;BME280;32113;42.012;24.870;2023-02-20T01:22:09;99172.56;;;16.26;35.28
46412;BME280;32113;42.012;24.870;2023-02-20T01:24:34;99175.31;;;16.22;35.06
46412;BME280;32113;42.012;24.870;2023-02-20T01:27:00;99178.00;;;16.19;35.63
46412;BME280;32113;42.012;24.870;2023-02-20T01:29:25;99178.44;;;16.05;35.37
46412;BME280;32113;42.012;24.870;2023-02-20T01:31:51;99178.16;;;16.14;35.22
46412;BME280;32113;42.012;24.870;2023-02-20T01:34:18;99178.03;;;16.17;35.34
46412;BME280;32113;42.012;24.870;2023-02-20T01:36:53;99183.72;;;16.28;35.25
46412;BME280;32113;42.012;24.870;2023-02-20T01:39:22;99187.41;;;16.21;35.46
46412;BME280;32113;42.012;24.870;2023-02-20T01:41:49;99191.78;;;16.19;35.31
46412;BME280;32113;42.012;24.870;2023-02-20T01:44:28;99195.97;;;16.23;35.22
46412;BME280;32113;42.012;24.870;2023-02-20T01:46:55;99194.50;;;16.14;35.40
46412;BME280;32113;42.012;24.870;2023-02-20T01:49:26;99176.22;;;15.90;35.72
46412;BME280;32113;42.012;24.870;2023-02-20T01:52:00;99194.44;;;15.87;35.87
46412;BME280;32113;42.012;24.870;2023-02-20T01:54:27;99172.50;;;15.71;36.41
46412;BME280;32113;42.012;24.870;2023-02-20T01:56:56;99178.66;;;15.67;36.66
46412;BME280;32113;42.012;24.870;2023-02-20T01:59:24;99185.19;;;15.79;36.72
46412;BME280;32113;42.012;24.870;2023-02-20T02:01:52;99192.59;;;15.91;36.38
46412;BME280;32113;42.012;24.870;2023-02-20T02:04:17;99195.97;;;15.95;35.99
46412;BME280;32113;42.012;24.870;2023-02-20T02:06:47;99183.78;;;15.98;36.41
46412;BME280;32113;42.012;24.870;2023-02-20T02:09:42;99192.72;;;15.86;36.30
46412;BME280;32113;42.012;24.870;2023-02-20T02:12:11;99199.69;;;15.84;36.30
46412;BME280;32113;42.012;24.870;2023-02-20T02:14:37;99201.63;;;15.77;36.72
46412;BME280;32113;42.012;24.870;2023-02-20T02:17:32;99189.66;;;15.73;36.70
46412;BME280;32113;42.012;24.870;2023-02-20T02:20:31;99205.63;;;15.58;36.99
46412;BME280;32113;42.012;24.870;2023-02-20T02:40:00;99217.00;;;15.20;38.20
46412;BME280;32113;42.012;24.870;2023-02-20T02:45:32;99241.63;;;15.34;37.79
46412;BME280;32113;42.012;24.870;2023-02-20T02:50:37;99244.56;;;15.20;37.94
46412;BME280;32113;42.012;24.870;2023-02-20T02:53:07;99236.25;;;15.08;38.21
46412;BME280;32113;42.012;24.870;2023-02-20T02:55:33;99245.03;;;15.01;38.62
46412;BME280;32113;42.012;24.870;2023-02-20T02:57:59;99250.16;;;15.03;38.50
46412;BME280;32113;42.012;24.870;2023-02-20T03:00:36;99250.06;;;15.07;38.41
46412;BME280;32113;42.012;24.870;2023-02-20T03:03:12;99251.59;;;15.15;38.37
46412;BME280;32113;42.012;24.870;2023-02-20T03:05:48;99256.22;;;15.02;38.62
46412;BME280;32113;42.012;24.870;2023-02-20T03:10:47;99272.47;;;15.07;38.42
46412;BME280;32113;42.012;24.870;2023-02-20T03:13:18;99276.47;;;15.19;38.31
46412;BME280;32113;42.012;24.870;2023-02-20T03:15:48;99270.84;;;15.03;38.62
46412;BME280;32113;42.012;24.870;2023-02-20T03:20:47;99276.31;;;14.90;38.86
46412;BME280;32113;42.012;24.870;2023-02-20T03:23:22;99276.72;;;14.71;38.82
46412;BME280;32113;42.012;24.870;2023-02-20T03:25:56;99271.88;;;14.59;39.02
46412;BME280;32113;42.012;24.870;2023-02-20T03:30:58;99265.13;;;14.52;39.33
46412;BME280;32113;42.012;24.870;2023-02-20T03:33:35;99277.47;;;14.39;39.42
46412;BME280;32113;42.012;24.870;2023-02-20T03:36:44;99273.41;;;14.28;40.13
46412;BME280;32113;42.012;24.870;2023-02-20T03:39:32;99275.25;;;14.23;40.35
46412;BME280;32113;42.012;24.870;2023-02-20T03:42:20;99277.75;;;14.25;40.04
46412;BME280;32113;42.012;24.870;2023-02-20T03:45:07;99291.66;;;14.19;40.58
46412;BME280;32113;42.012;24.870;2023-02-20T03:47:38;99278.81;;;14.16;40.70
46412;BME280;32113;42.012;24.870;2023-02-20T03:50:06;99270.22;;;14.15;40.52
46412;BME280;32113;42.012;24.870;2023-02-20T03:52:32;99290.00;;;14.16;40.37
46412;BME280;32113;42.012;24.870;2023-02-20T03:54:58;99282.31;;;14.13;40.82
46412;BME280;32113;42.012;24.870;2023-02-20T03:57:32;99282.13;;;14.23;40.55
46412;BME280;32113;42.012;24.870;2023-02-20T04:00:05;99302.78;;;14.21;40.42
46412;BME280;32113;42.012;24.870;2023-02-20T04:02:38;99294.81;;;14.32;40.19
46412;BME280;32113;42.012;24.870;2023-02-20T04:05:10;99309.50;;;14.30;40.09
46412;BME280;32113;42.012;24.870;2023-02-20T04:08:38;99298.38;;;14.26;39.88
46412;BME280;32113;42.012;24.870;2023-02-20T04:11:00;99312.84;;;14.35;40.02
46412;BME280;32113;42.012;24.870;2023-02-20T04:13:27;99313.16;;;14.19;39.86
46412;BME280;32113;42.012;24.870;2023-02-20T04:15:55;99314.88;;;14.21;40.06
46412;BME280;32113;42.012;24.870;2023-02-20T04:18:22;99311.31;;;14.25;39.98
46412;BME280;32113;42.012;24.870;2023-02-20T04:20:52;99313.97;;;14.22;40.25
46412;BME280;32113;42.012;24.870;2023-02-20T04:23:20;99317.53;;;14.16;40.49
46412;BME280;32113;42.012;24.870;2023-02-20T04:25:56;99315.69;;;14.21;40.18
46412;BME280;32113;42.012;24.870;2023-02-20T04:28:23;99322.59;;;14.21;40.20
46412;BME280;32113;42.012;24.870;2023-02-20T04:30:50;99321.72;;;14.22;40.28
46412;BME280;32113;42.012;24.870;2023-02-20T04:33:17;99329.28;;;14.29;39.67
46412;BME280;32113;42.012;24.870;2023-02-20T04:35:43;99309.81;;;14.14;40.09
46412;BME280;32113;42.012;24.870;2023-02-20T04:38:09;99296.50;;;13.92;40.19
46412;BME280;32113;42.012;24.870;2023-02-20T04:40:35;99289.44;;;14.02;39.69
46412;BME280;32113;42.012;24.870;2023-02-20T04:43:00;99303.19;;;14.02;39.56
46412;BME280;32113;42.012;24.870;2023-02-20T04:45:26;99290.19;;;14.07;39.55
46412;BME280;32113;42.012;24.870;2023-02-20T04:47:51;99282.88;;;13.85;39.73
46412;BME280;32113;42.012;24.870;2023-02-20T04:52:48;99287.44;;;13.74;40.17
46412;BME280;32113;42.012;24.870;2023-02-20T04:55:13;99288.88;;;13.87;40.07
46412;BME280;32113;42.012;24.870;2023-02-20T04:57:39;99287.16;;;13.86;39.39
46412;BME280;32113;42.012;24.870;2023-02-20T05:00:05;99290.59;;;13.87;39.41
46412;BME280;32113;42.012;24.870;2023-02-20T05:02:37;99310.22;;;13.94;39.63
46412;BME280;32113;42.012;24.870;2023-02-20T05:05:03;99329.97;;;13.97;39.60
46412;BME280;32113;42.012;24.870;2023-02-20T05:07:29;99338.41;;;14.03;38.86
46412;BME280;32113;42.012;24.870;2023-02-20T05:09:54;99338.16;;;14.16;39.32
46412;BME280;32113;42.012;24.870;2023-02-20T05:12:20;99317.00;;;14.00;39.38
46412;BME280;32113;42.012;24.870;2023-02-20T05:14:45;99306.69;;;13.98;39.49
46412;BME280;32113;42.012;24.870;2023-02-20T05:17:10;99317.66;;;14.10;38.93
46412;BME280;32113;42.012;24.870;2023-02-20T05:19:36;99323.91;;;13.99;38.85
46412;BME280;32113;42.012;24.870;2023-02-20T05:22:01;99337.63;;;14.00;38.81
46412;BME280;32113;42.012;24.870;2023-02-20T05:24:46;99343.97;;;13.83;39.12
46412;BME280;32113;42.012;24.870;2023-02-20T05:27:14;99338.84;;;13.82;38.65
46412;BME280;32113;42.012;24.870;2023-02-20T05:29:54;99353.84;;;14.06;38.78
46412;BME280;32113;42.012;24.870;2023-02-20T05:32:21;99354.88;;;13.98;38.88
46412;BME280;32113;42.012;24.870;2023-02-20T05:34:47;99353.13;;;13.98;38.56
46412;BME280;32113;42.012;24.870;2023-02-20T05:37:16;99367.22;;;13.82;38.64
46412;BME280;32113;42.012;24.870;2023-02-20T05:39:42;99362.84;;;13.85;38.33
46412;BME280;32113;42.012;24.870;2023-02-20T05:42:08;99366.25;;;13.87;38.06
46412;BME280;32113;42.012;24.870;2023-02-20T05:44:34;99371.31;;;13.92;37.73
46412;BME280;32113;42.012;24.870;2023-02-20T05:47:00;99370.44;;;13.93;37.78
46412;BME280;32113;42.012;24.870;2023-02-20T05:49:25;99379.31;;;13.78;37.74
46412;BME280;32113;42.012;24.870;2023-02-20T05:51:51;99388.91;;;13.70;38.52
46412;BME280;32113;42.012;24.870;2023-02-20T05:54:18;99388.09;;;13.68;38.34
46412;BME280;32113;42.012;24.870;2023-02-20T05:56:44;99395.66;;;13.75;38.03
46412;BME280;32113;42.012;24.870;2023-02-20T05:59:11;99415.34;;;13.81;38.00
46412;BME280;32113;42.012;24.870;2023-02-20T06:01:37;99424.09;;;13.74;38.52
46412;BME280;32113;42.012;24.870;2023-02-20T06:04:02;99433.41;;;13.81;38.21
46412;BME280;32113;42.012;24.870;2023-02-20T06:06:33;99441.97;;;13.83;37.80
46412;BME280;32113;42.012;24.870;2023-02-20T06:08:58;99441.28;;;13.73;37.83
46412;BME280;32113;42.012;24.870;2023-02-20T06:11:24;99432.72;;;13.71;37.68
46412;BME280;32113;42.012;24.870;2023-02-20T06:13:49;99435.31;;;13.71;37.30
46412;BME280;32113;42.012;24.870;2023-02-20T06:16:21;99434.50;;;13.68;37.29
46412;BME280;32113;42.012;24.870;2023-02-20T06:18:47;99441.31;;;13.70;37.50
46412;BME280;32113;42.012;24.870;2023-02-20T06:21:12;99440.50;;;13.68;37.16
46412;BME280;32113;42.012;24.870;2023-02-20T06:23:38;99444.13;;;13.58;37.33
46412;BME280;32113;42.012;24.870;2023-02-20T06:26:05;99433.81;;;13.58;37.12
46412;BME280;32113;42.012;24.870;2023-02-20T06:28:31;99440.69;;;13.56;37.01
46412;BME280;32113;42.012;24.870;2023-02-20T06:30:56;99458.84;;;13.49;37.37
46412;BME280;32113;42.012;24.870;2023-02-20T06:33:22;99440.78;;;13.51;36.94
46412;BME280;32113;42.012;24.870;2023-02-20T06:35:47;99446.59;;;13.62;37.13
46412;BME280;32113;42.012;24.870;2023-02-20T06:38:13;99443.88;;;13.72;36.84
46412;BME280;32113;42.012;24.870;2023-02-20T06:40:39;99446.31;;;13.81;36.26
46412;BME280;32113;42.012;24.870;2023-02-20T06:43:04;99457.53;;;13.77;36.36
46412;BME280;32113;42.012;24.870;2023-02-20T06:45:30;99447.22;;;13.77;35.67
46412;BME280;32113;42.012;24.870;2023-02-20T06:47:55;99460.94;;;13.81;35.21
46412;BME280;32113;42.012;24.870;2023-02-20T06:50:21;99446.25;;;13.84;35.62
46412;BME280;32113;42.012;24.870;2023-02-20T06:52:46;99443.50;;;13.93;35.09
46412;BME280;32113;42.012;24.870;2023-02-20T06:55:12;99433.16;;;13.97;35.11
46412;BME280;32113;42.012;24.870;2023-02-20T06:57:37;99439.09;;;14.00;35.17
46412;BME280;32113;42.012;24.870;2023-02-20T07:00:04;99437.44;;;13.98;35.04
46412;BME280;32113;42.012;24.870;2023-02-20T07:02:29;99439.81;;;14.09;35.42
46412;BME280;32113;42.012;24.870;2023-02-20T07:04:55;99424.22;;;14.15;34.93
46412;BME280;32113;42.012;24.870;2023-02-20T07:07:20;99436.16;;;14.21;34.49
46412;BME280;32113;42.012;24.870;2023-02-20T07:09:46;99434.34;;;14.26;34.64
46412;BME280;32113;42.012;24.870;2023-02-20T07:12:11;99434.97;;;14.36;34.31
46412;BME280;32113;42.012;24.870;2023-02-20T07:14:37;99432.16;;;14.48;33.80
46412;BME280;32113;42.012;24.870;2023-02-20T07:17:02;99425.94;;;14.57;33.83
46412;BME280;32113;42.012;24.870;2023-02-20T07:19:27;99416.44;;;14.61;33.19
46412;BME280;32113;42.012;24.870;2023-02-20T07:21:53;99411.31;;;14.57;33.51
46412;BME280;32113;42.012;24.870;2023-02-20T07:24:18;99405.25;;;14.58;33.02
46412;BME280;32113;42.012;24.870;2023-02-20T07:26:44;99409.28;;;14.72;33.14
46412;BME280;32113;42.012;24.870;2023-02-20T07:29:11;99414.28;;;14.81;33.19
46412;BME280;32113;42.012;24.870;2023-02-20T07:31:37;99408.38;;;14.76;32.66
46412;BME280;32113;42.012;24.870;2023-02-20T07:34:03;99414.31;;;14.80;32.80
46412;BME280;32113;42.012;24.870;2023-02-20T07:36:28;99406.50;;;14.83;32.52
46412;BME280;32113;42.012;24.870;2023-02-20T07:38:59;99403.72;;;14.92;32.34
46412;BME280;32113;42.012;24.870;2023-02-20T07:41:26;99407.09;;;14.94;32.44
46412;BME280;32113;42.012;24.870;2023-02-20T07:43:54;99414.22;;;14.84;32.50
46412;BME280;32113;42.012;24.870;2023-02-20T07:46:20;99415.72;;;14.95;32.69
46412;BME280;32113;42.012;24.870;2023-02-20T07:48:45;99426.88;;;14.95;32.30
46412;BME280;32113;42.012;24.870;2023-02-20T07:51:10;99428.69;;;14.92;32.53
46412;BME280;32113;42.012;24.870;2023-02-20T07:53:36;99421.50;;;15.05;32.63
46412;BME280;32113;42.012;24.870;2023-02-20T07:56:03;99425.72;;;15.09;32.59
46412;BME280;32113;42.012;24.870;2023-02-20T07:58:29;99424.22;;;15.00;32.63
46412;BME280;32113;42.012;24.870;2023-02-20T08:00:54;99433.09;;;14.88;33.02
46412;BME280;32113;42.012;24.870;2023-02-20T08:03:20;99428.72;;;14.90;32.97
46412;BME280;32113;42.012;24.870;2023-02-20T08:05:45;99421.06;;;14.87;32.68
46412;BME280;32113;42.012;24.870;2023-02-20T08:08:11;99432.16;;;14.91;32.90
46412;BME280;32113;42.012;24.870;2023-02-20T08:10:36;99427.09;;;14.86;32.39
46412;BME280;32113;42.012;24.870;2023-02-20T08:13:02;99429.59;;;14.89;32.53
46412;BME280;32113;42.012;24.870;2023-02-20T08:15:27;99427.78;;;14.94;32.29
46412;BME280;32113;42.012;24.870;2023-02-20T08:17:53;99447.22;;;15.11;32.25
46412;BME280;32113;42.012;24.870;2023-02-20T08:20:19;99426.63;;;15.08;32.17
46412;BME280;32113;42.012;24.870;2023-02-20T08:22:46;99420.41;;;15.17;32.41
46412;BME280;32113;42.012;24.870;2023-02-20T08:25:13;99411.66;;;15.21;31.89
46412;BME280;32113;42.012;24.870;2023-02-20T08:27:43;99426.66;;;15.43;31.90
46412;BME280;32113;42.012;24.870;2023-02-20T08:30:35;99434.09;;;15.57;32.09
46412;BME280;32113;42.012;24.870;2023-02-20T08:33:01;99418.53;;;15.58;30.38
46412;BME280;32113;42.012;24.870;2023-02-20T08:35:30;99434.59;;;15.71;30.41
46412;BME280;32113;42.012;24.870;2023-02-20T08:37:58;99424.06;;;15.79;29.71
46412;BME280;32113;42.012;24.870;2023-02-20T08:40:24;99428.34;;;15.80;28.90
46412;BME280;32113;42.012;24.870;2023-02-20T08:42:49;99426.41;;;15.88;28.96
46412;BME280;32113;42.012;24.870;2023-02-20T08:45:14;99435.66;;;15.99;28.57
46412;BME280;32113;42.012;24.870;2023-02-20T08:47:40;99426.44;;;15.87;28.06
46412;BME280;32113;42.012;24.870;2023-02-20T08:50:05;99431.53;;;15.90;27.56
46412;BME280;32113;42.012;24.870;2023-02-20T08:52:31;99431.41;;;15.96;27.70
46412;BME280;32113;42.012;24.870;2023-02-20T08:54:56;99417.34;;;16.05;26.85
46412;BME280;32113;42.012;24.870;2023-02-20T08:57:21;99427.19;;;16.24;27.05
46412;BME280;32113;42.012;24.870;2023-02-20T08:59:47;99427.66;;;16.38;26.43
46412;BME280;32113;42.012;24.870;2023-02-20T09:02:21;99437.88;;;16.45;25.74
46412;BME280;32113;42.012;24.870;2023-02-20T09:04:49;99431.19;;;16.67;24.71
46412;BME280;32113;42.012;24.870;2023-02-20T09:07:15;99426.44;;;16.82;24.93
46412;BME280;32113;42.012;24.870;2023-02-20T09:09:40;99422.41;;;17.00;25.37
46412;BME280;32113;42.012;24.870;2023-02-20T09:12:06;99434.75;;;17.22;25.63
46412;BME280;32113;42.012;24.870;2023-02-20T09:14:32;99439.81;;;17.52;25.06
46412;BME280;32113;42.012;24.870;2023-02-20T09:16:58;99440.81;;;17.75;24.34
46412;BME280;32113;42.012;24.870;2023-02-20T09:19:23;99444.50;;;17.93;23.31
46412;BME280;32113;42.012;24.870;2023-02-20T09:21:49;99440.91;;;17.97;22.60
46412;BME280;32113;42.012;24.870;2023-02-20T09:24:15;99427.69;;;18.04;23.09
46412;BME280;32113;42.012;24.870;2023-02-20T09:26:40;99424.66;;;18.42;22.38
46412;BME280;32113;42.012;24.870;2023-02-20T09:29:06;99433.50;;;18.84;21.67
46412;BME280;32113;42.012;24.870;2023-02-20T09:31:31;99437.47;;;19.16;21.18
46412;BME280;32113;42.012;24.870;2023-02-20T09:33:56;99435.22;;;19.29;21.63
46412;BME280;32113;42.012;24.870;2023-02-20T09:36:22;99431.53;;;19.35;20.08
46412;BME280;32113;42.012;24.870;2023-02-20T09:38:47;99425.69;;;19.51;20.07
46412;BME280;32113;42.012;24.870;2023-02-20T09:41:28;99447.03;;;19.59;19.96
46412;BME280;32113;42.012;24.870;2023-02-20T09:44:16;99434.94;;;19.58;19.96
46412;BME280;32113;42.012;24.870;2023-02-20T09:46:44;99427.59;;;19.47;20.64
46412;BME280;32113;42.012;24.870;2023-02-20T09:49:14;99425.97;;;19.65;20.53
46412;BME280;32113;42.012;24.870;2023-02-20T09:51:44;99447.59;;;19.45;19.87
46412;BME280;32113;42.012;24.870;2023-02-20T09:54:28;99471.88;;;19.46;19.17
46412;BME280;32113;42.012;24.870;2023-02-20T09:56:58;99450.78;;;19.52;18.65
46412;BME280;32113;42.012;24.870;2023-02-20T09:59:32;99429.69;;;19.37;17.58
46412;BME280;32113;42.012;24.870;2023-02-20T10:02:32;99425.94;;;19.45;17.88
46412;BME280;32113;42.012;24.870;2023-02-20T10:04:58;99438.44;;;19.57;17.31
46412;BME280;32113;42.012;24.870;2023-02-20T10:07:29;99425.09;;;19.44;16.50
46412;BME280;32113;42.012;24.870;2023-02-20T10:09:56;99422.16;;;19.52;16.63
46412;BME280;32113;42.012;24.870;2023-02-20T10:22:21;99421.38;;;19.29;14.91
46412;BME280;32113;42.012;24.870;2023-02-20T10:29:47;99423.03;;;19.32;14.67
46412;BME280;32113;42.012;24.870;2023-02-20T10:32:21;99415.28;;;19.30;14.70
46412;BME280;32113;42.012;24.870;2023-02-20T10:34:57;99429.69;;;19.37;15.15
46412;BME280;32113;42.012;24.870;2023-02-20T10:37:28;99431.06;;;19.25;14.95
46412;BME280;32113;42.012;24.870;2023-02-20T10:45:04;99446.59;;;19.70;14.24
46412;BME280;32113;42.012;24.870;2023-02-20T10:47:40;99432.41;;;19.56;14.20
46412;BME280;32113;42.012;24.870;2023-02-20T10:50:28;99425.84;;;19.68;14.09
46412;BME280;32113;42.012;24.870;2023-02-20T10:53:06;99407.75;;;19.65;14.15
46412;BME280;32113;42.012;24.870;2023-02-20T10:58:44;99427.75;;;19.42;14.61
46412;BME280;32113;42.012;24.870;2023-02-20T11:01:18;99433.22;;;19.57;14.68
46412;BME280;32113;42.012;24.870;2023-02-20T11:04:12;99431.38;;;19.61;14.15
46412;BME280;32113;42.012;24.870;2023-02-20T11:07:07;99420.75;;;19.45;14.31
46412;BME280;32113;42.012;24.870;2023-02-20T11:09:33;99431.91;;;19.26;14.67
46412;BME280;32113;42.012;24.870;2023-02-20T11:11:59;99429.69;;;19.37;14.47
46412;BME280;32113;42.012;24.870;2023-02-20T11:14:37;99417.50;;;19.39;14.24
46412;BME280;32113;42.012;24.870;2023-02-20T11:17:08;99411.75;;;19.52;14.16
46412;BME280;32113;42.012;24.870;2023-02-20T11:19:45;99408.84;;;19.39;14.25
46412;BME280;32113;42.012;24.870;2023-02-20T11:22:11;99408.06;;;19.14;13.78
46412;BME280;32113;42.012;24.870;2023-02-20T11:24:39;99411.59;;;19.13;14.11
46412;BME280;32113;42.012;24.870;2023-02-20T11:27:06;99403.13;;;19.08;14.42
46412;BME280;32113;42.012;24.870;2023-02-20T11:29:55;99409.84;;;19.14;14.68
46412;BME280;32113;42.012;24.870;2023-02-20T11:32:37;99393.78;;;19.02;14.90
46412;BME280;32113;42.012;24.870;2023-02-20T11:37:45;99397.28;;;19.24;15.09
46412;BME280;32113;42.012;24.870;2023-02-20T11:42:40;99399.88;;;19.01;14.64
46412;BME280;32113;42.012;24.870;2023-02-20T11:45:21;99394.84;;;19.21;14.75
46412;BME280;32113;42.012;24.870;2023-02-20T11:50:41;99387.53;;;19.08;14.71
46412;BME280;32113;42.012;24.870;2023-02-20T11:53:21;99401.59;;;19.25;14.60
46412;BME280;32113;42.012;24.870;2023-02-20T11:55:48;99403.84;;;19.12;14.94
46412;BME280;32113;42.012;24.870;2023-02-20T11:58:25;99401.66;;;19.01;14.75
46412;BME280;32113;42.012;24.870;2023-02-20T12:00:53;99424.16;;;19.02;15.15
46412;BME280;32113;42.012;24.870;2023-02-20T12:03:29;99402.19;;;18.87;15.04
46412;BME280;32113;42.012;24.870;2023-02-20T12:05:57;99404.63;;;18.91;15.01
46412;BME280;32113;42.012;24.870;2023-02-20T12:08:40;99410.16;;;19.06;15.15
46412;BME280;32113;42.012;24.870;2023-02-20T12:13:43;99417.63;;;19.14;14.62
46412;BME280;32113;42.012;24.870;2023-02-20T12:16:24;99407.59;;;19.27;15.28
46412;BME280;32113;42.012;24.870;2023-02-20T12:21:36;99415.97;;;19.34;15.05
46412;BME280;32113;42.012;24.870;2023-02-20T12:26:54;99403.41;;;19.23;14.94
46412;BME280;32113;42.012;24.870;2023-02-20T12:32:30;99408.22;;;19.11;15.34
46412;BME280;32113;42.012;24.870;2023-02-20T12:49:16;99395.44;;;19.05;15.48
46412;BME280;32113;42.012;24.870;2023-02-20T12:54:26;99398.56;;;18.91;15.94
46412;BME280;32113;42.012;24.870;2023-02-20T13:05:05;99419.41;;;18.89;15.88
46412;BME280;32113;42.012;24.870;2023-02-20T13:07:51;99395.41;;;18.83;15.73
46412;BME280;32113;42.012;24.870;2023-02-20T13:10:26;99400.81;;;19.00;15.80
46412;BME280;32113;42.012;24.870;2023-02-20T13:12:54;99401.53;;;19.04;15.92
46412;BME280;32113;42.012;24.870;2023-02-20T13:15:37;99404.13;;;19.04;16.01
46412;BME280;32113;42.012;24.870;2023-02-20T13:18:09;99407.34;;;19.11;16.06
46412;BME280;32113;42.012;24.870;2023-02-20T13:21:12;99414.66;;;19.01;16.22
46412;BME280;32113;42.012;24.870;2023-02-20T13:23:38;99417.06;;;18.83;16.09
46412;BME280;32113;42.012;24.870;2023-02-20T13:28:50;99418.63;;;19.11;16.28
46412;BME280;32113;42.012;24.870;2023-02-20T13:31:23;99411.78;;;19.09;16.44
46412;BME280;32113;42.012;24.870;2023-02-20T13:52:38;99409.63;;;18.74;16.13
46412;BME280;32113;42.012;24.870;2023-02-20T13:58:11;99430.25;;;19.01;16.04
46412;BME280;32113;42.012;24.870;2023-02-20T14:00:52;99426.59;;;19.07;16.07
46412;BME280;32113;42.012;24.870;2023-02-20T14:03:28;99443.81;;;19.09;16.00
46412;BME280;32113;42.012;24.870;2023-02-20T14:08:29;99439.97;;;18.96;16.21
46412;BME280;32113;42.012;24.870;2023-02-20T14:11:03;99432.59;;;18.85;16.43
46412;BME280;32113;42.012;24.870;2023-02-20T14:13:29;99430.69;;;18.90;16.17
46412;BME280;32113;42.012;24.870;2023-02-20T14:15:57;99433.75;;;19.00;16.30
46412;BME280;32113;42.012;24.870;2023-02-20T14:18:28;99431.66;;;19.10;16.44
46412;BME280;32113;42.012;24.870;2023-02-20T14:23:32;99431.41;;;19.16;16.11
46412;BME280;32113;42.012;24.870;2023-02-20T14:26:04;99436.66;;;19.14;16.03
46412;BME280;32113;42.012;24.870;2023-02-20T14:28:32;99424.44;;;18.94;16.29
46412;BME280;32113;42.012;24.870;2023-02-20T14:33:41;99435.63;;;18.74;16.48
46412;BME280;32113;42.012;24.870;2023-02-20T14:36:29;99442.91;;;18.64;16.50
46412;BME280;32113;42.012;24.870;2023-02-20T14:41:58;99446.50;;;18.60;16.81
46412;BME280;32113;42.012;24.870;2023-02-20T14:44:25;99449.19;;;18.58;16.68
46412;BME280;32113;42.012;24.870;2023-02-20T14:46:54;99443.50;;;18.71;16.72
46412;BME280;32113;42.012;24.870;2023-02-20T14:49:26;99435.41;;;18.78;16.74
46412;BME280;32113;42.012;24.870;2023-02-20T14:52:20;99436.94;;;18.84;16.41
46412;BME280;32113;42.012;24.870;2023-02-20T14:54:58;99435.25;;;18.83;16.64
46412;BME280;32113;42.012;24.870;2023-02-20T14:57:24;99438.53;;;18.88;16.99
46412;BME280;32113;42.012;24.870;2023-02-20T15:02:47;99442.28;;;18.57;17.17
46412;BME280;32113;42.012;24.870;2023-02-20T15:05:18;99442.53;;;18.51;17.60
46412;BME280;32113;42.012;24.870;2023-02-20T15:07:45;99440.69;;;18.29;17.54
46412;BME280;32113;42.012;24.870;2023-02-20T15:10:44;99453.00;;;18.24;17.99
46412;BME280;32113;42.012;24.870;2023-02-20T15:13:13;99461.59;;;18.26;18.04
46412;BME280;32113;42.012;24.870;2023-02-20T15:15:45;99467.72;;;17.98;18.48
46412;BME280;32113;42.012;24.870;2023-02-20T15:18:13;99462.94;;;17.85;18.68
46412;BME280;32113;42.012;24.870;2023-02-20T15:20:43;99473.50;;;17.81;19.04
46412;BME280;32113;42.012;24.870;2023-02-20T15:25:37;99473.97;;;17.65;19.23